JBU1079 KBOS-EGPH
Flight info
| Callsign | JBU1079 |
|---|---|
| Flight time | N/A |
| Altitude | 33000 |
| Route | LBSTA8 LBSTA DCT EBONY N567B TUDEP/M079F330 DCT 52N050W 54N040W 56N030W 56N020W DCT PIKIL DCT SOVED/N0456F330 DCT MIMKU DCT DONIB DCT MAC N562 TRN DCT TLA |
| Aircraft | A21N/M-SDE2E3FGHIRWXY/LB1 |
Departure
| Time | N/A |
|---|---|
| Airport | Boston Logan International Airport (KBOS) |
Arrival
| Time | 2026-04-23 17:49 |
|---|---|
| Airport | Edinburgh Airport (EGPH) |
| Time | Latitude | Longitude | Altitude | Speed | Heading |
|---|---|---|---|---|---|
| 2026-04-23 15:38 | 56.06414 | -28.02548 | 33001 ft | 417 kts | 90° |
| 2026-04-23 15:39 | 56.06539 | -27.97368 | 32996 ft | 417 kts | 90° |
| 2026-04-23 15:39 | 56.06784 | -27.86996 | 32988 ft | 416 kts | 90° |
| 2026-04-23 15:40 | 56.07021 | -27.76590 | 32986 ft | 417 kts | 90° |
| 2026-04-23 15:40 | 56.07249 | -27.66215 | 32982 ft | 418 kts | 90° |
| 2026-04-23 15:41 | 56.07467 | -27.55877 | 32999 ft | 417 kts | 90° |
| 2026-04-23 15:41 | 56.07678 | -27.45483 | 32998 ft | 417 kts | 90° |
| 2026-04-23 15:42 | 56.07880 | -27.35073 | 32999 ft | 417 kts | 90° |
| 2026-04-23 15:42 | 56.08074 | -27.24713 | 32988 ft | 417 kts | 90° |
| 2026-04-23 15:43 | 56.08257 | -27.14360 | 32994 ft | 418 kts | 90° |
| 2026-04-23 15:43 | 56.08433 | -27.03947 | 32997 ft | 418 kts | 91° |
| 2026-04-23 15:44 | 56.08600 | -26.93579 | 32992 ft | 417 kts | 91° |
| 2026-04-23 15:44 | 56.08760 | -26.83147 | 32999 ft | 418 kts | 91° |
| 2026-04-23 15:45 | 56.08909 | -26.72832 | 32999 ft | 413 kts | 91° |
| 2026-04-23 15:45 | 56.09047 | -26.62538 | 33001 ft | 413 kts | 91° |
| 2026-04-23 15:46 | 56.09178 | -26.52253 | 33001 ft | 413 kts | 91° |
| 2026-04-23 15:46 | 56.09299 | -26.42019 | 32996 ft | 413 kts | 91° |
| 2026-04-23 15:47 | 56.09413 | -26.31718 | 33000 ft | 413 kts | 91° |
| 2026-04-23 15:47 | 56.09518 | -26.21444 | 33002 ft | 412 kts | 91° |
| 2026-04-23 15:48 | 56.09615 | -26.11141 | 33013 ft | 412 kts | 91° |
| 2026-04-23 15:48 | 56.09703 | -26.00911 | 33011 ft | 412 kts | 91° |
| 2026-04-23 15:49 | 56.09783 | -25.90634 | 33010 ft | 413 kts | 91° |
| 2026-04-23 15:49 | 56.09854 | -25.80353 | 33014 ft | 412 kts | 91° |
| 2026-04-23 15:50 | 56.09916 | -25.70144 | 33008 ft | 412 kts | 92° |
| 2026-04-23 15:50 | 56.09971 | -25.59882 | 33012 ft | 411 kts | 92° |
| 2026-04-23 15:51 | 56.10016 | -25.49620 | 33012 ft | 411 kts | 92° |
| 2026-04-23 15:51 | 56.10054 | -25.39373 | 33010 ft | 411 kts | 92° |
| 2026-04-23 15:52 | 56.10079 | -25.29173 | 33025 ft | 411 kts | 92° |
| 2026-04-23 15:52 | 56.10101 | -25.18904 | 33007 ft | 411 kts | 92° |
| 2026-04-23 15:53 | 56.10115 | -25.08676 | 33022 ft | 411 kts | 92° |
| 2026-04-23 15:53 | 56.10114 | -24.98444 | 33024 ft | 411 kts | 92° |
| 2026-04-23 15:54 | 56.10111 | -24.88200 | 33021 ft | 411 kts | 92° |
| 2026-04-23 15:54 | 56.10097 | -24.77971 | 33028 ft | 410 kts | 93° |
| 2026-04-23 15:55 | 56.10073 | -24.67833 | 33028 ft | 410 kts | 93° |
| 2026-04-23 15:55 | 56.10043 | -24.57593 | 33016 ft | 410 kts | 93° |
| 2026-04-23 15:56 | 56.10003 | -24.47398 | 33023 ft | 409 kts | 93° |
| 2026-04-23 15:56 | 56.09956 | -24.37118 | 33036 ft | 409 kts | 93° |
| 2026-04-23 15:57 | 56.09900 | -24.26961 | 33036 ft | 410 kts | 94° |
| 2026-04-23 15:57 | 56.09836 | -24.16763 | 33033 ft | 409 kts | 94° |
| 2026-04-23 15:58 | 56.09765 | -24.06621 | 33048 ft | 405 kts | 94° |
| 2026-04-23 15:58 | 56.09698 | -23.98240 | 33039 ft | 404 kts | 94° |
| 2026-04-23 15:59 | 56.09609 | -23.88176 | 33039 ft | 404 kts | 94° |
| 2026-04-23 15:59 | 56.09514 | -23.78119 | 33045 ft | 404 kts | 94° |
| 2026-04-23 16:00 | 56.09411 | -23.68117 | 33047 ft | 404 kts | 94° |
| 2026-04-23 16:00 | 56.09299 | -23.57917 | 33042 ft | 404 kts | 94° |
| 2026-04-23 16:01 | 56.09178 | -23.47829 | 33042 ft | 404 kts | 94° |
| 2026-04-23 16:01 | 56.09053 | -23.37836 | 33025 ft | 404 kts | 94° |
| 2026-04-23 16:02 | 56.08915 | -23.27674 | 33046 ft | 405 kts | 95° |
| 2026-04-23 16:02 | 56.08770 | -23.17663 | 33045 ft | 405 kts | 95° |
| 2026-04-23 16:03 | 56.08616 | -23.07476 | 33050 ft | 405 kts | 95° |
| 2026-04-23 16:03 | 56.08454 | -22.97362 | 33045 ft | 405 kts | 95° |
| 2026-04-23 16:04 | 56.08286 | -22.87337 | 33044 ft | 405 kts | 95° |
| 2026-04-23 16:04 | 56.08109 | -22.77274 | 33090 ft | 405 kts | 95° |
| 2026-04-23 16:05 | 56.07955 | -22.68883 | 33045 ft | 407 kts | 95° |
| 2026-04-23 16:05 | 56.07729 | -22.57012 | 33063 ft | 408 kts | 95° |
| 2026-04-23 16:06 | 56.07524 | -22.46853 | 33062 ft | 408 kts | 95° |
| 2026-04-23 16:06 | 56.07339 | -22.37948 | 33056 ft | 408 kts | 96° |
| 2026-04-23 16:07 | 56.07119 | -22.27773 | 33063 ft | 408 kts | 96° |
| 2026-04-23 16:07 | 56.06891 | -22.17622 | 33066 ft | 408 kts | 96° |
| 2026-04-23 16:08 | 56.06656 | -22.07535 | 33056 ft | 409 kts | 96° |
| 2026-04-23 16:08 | 56.06410 | -21.97334 | 33068 ft | 410 kts | 96° |
| 2026-04-23 16:09 | 56.06155 | -21.87128 | 33058 ft | 410 kts | 96° |
| 2026-04-23 16:09 | 56.05894 | -21.76990 | 33085 ft | 410 kts | 96° |
| 2026-04-23 16:10 | 56.05617 | -21.66586 | 33084 ft | 410 kts | 96° |
| 2026-04-23 16:10 | 56.05338 | -21.56379 | 33092 ft | 410 kts | 96° |
| 2026-04-23 16:11 | 56.05051 | -21.46214 | 33069 ft | 410 kts | 97° |
| 2026-04-23 16:11 | 56.04750 | -21.35879 | 33098 ft | 416 kts | 97° |
| 2026-04-23 16:12 | 56.04441 | -21.25545 | 33096 ft | 416 kts | 97° |
| 2026-04-23 16:12 | 56.04123 | -21.15154 | 33096 ft | 416 kts | 97° |
| 2026-04-23 16:13 | 56.03796 | -21.04798 | 33106 ft | 416 kts | 97° |
| 2026-04-23 16:13 | 56.03288 | -20.89240 | 33105 ft | 417 kts | 97° |
| 2026-04-23 16:14 | 56.02942 | -20.78951 | 33096 ft | 417 kts | 98° |
| 2026-04-23 16:14 | 56.02585 | -20.68605 | 33109 ft | 417 kts | 98° |
| 2026-04-23 16:15 | 56.02219 | -20.58218 | 33122 ft | 417 kts | 98° |
| 2026-04-23 16:15 | 56.01843 | -20.47856 | 33124 ft | 417 kts | 98° |
| 2026-04-23 16:16 | 56.01459 | -20.37594 | 33126 ft | 417 kts | 98° |
| 2026-04-23 16:16 | 56.01066 | -20.27159 | 33124 ft | 416 kts | 98° |
| 2026-04-23 16:17 | 56.00667 | -20.16782 | 33110 ft | 415 kts | 99° |
| 2026-04-23 16:17 | 56.00261 | -20.06572 | 33135 ft | 418 kts | 99° |
| 2026-04-23 16:18 | 56.00052 | -19.96057 | 33141 ft | 423 kts | 93° |
| 2026-04-23 16:18 | 56.00263 | -19.85545 | 33149 ft | 424 kts | 93° |
| 2026-04-23 16:19 | 56.00466 | -19.75048 | 33142 ft | 423 kts | 93° |
| 2026-04-23 16:19 | 56.00653 | -19.64478 | 33143 ft | 423 kts | 93° |
| 2026-04-23 16:20 | 56.00804 | -19.55753 | 33120 ft | 421 kts | 94° |
| 2026-04-23 16:20 | 56.00973 | -19.45559 | 33142 ft | 421 kts | 94° |
| 2026-04-23 16:21 | 56.01126 | -19.35467 | 33161 ft | 421 kts | 94° |
| 2026-04-23 16:21 | 56.01261 | -19.26214 | 33173 ft | 421 kts | 94° |
| 2026-04-23 16:22 | 56.01402 | -19.16097 | 33174 ft | 421 kts | 94° |
| 2026-04-23 16:22 | 56.01538 | -19.05435 | 33186 ft | 421 kts | 94° |
| 2026-04-23 16:23 | 56.01660 | -18.95613 | 33156 ft | 418 kts | 95° |
| 2026-04-23 16:23 | 56.01774 | -18.85613 | 33174 ft | 418 kts | 95° |
| 2026-04-23 16:24 | 56.01882 | -18.75535 | 33176 ft | 419 kts | 95° |
| 2026-04-23 16:24 | 56.01982 | -18.65131 | 33184 ft | 418 kts | 95° |
| 2026-04-23 16:25 | 56.02076 | -18.54792 | 33182 ft | 418 kts | 95° |
| 2026-04-23 16:25 | 56.02161 | -18.44431 | 33146 ft | 418 kts | 96° |
| 2026-04-23 16:26 | 56.02236 | -18.33910 | 33181 ft | 419 kts | 96° |
| 2026-04-23 16:26 | 56.02303 | -18.23499 | 33194 ft | 420 kts | 96° |
| 2026-04-23 16:27 | 56.02359 | -18.13120 | 33201 ft | 420 kts | 96° |
| 2026-04-23 16:27 | 56.02408 | -18.02693 | 33202 ft | 420 kts | 96° |
| 2026-04-23 16:28 | 56.02447 | -17.92250 | 33208 ft | 420 kts | 96° |
| 2026-04-23 16:28 | 56.02480 | -17.81823 | 33209 ft | 420 kts | 96° |
| 2026-04-23 16:29 | 56.02505 | -17.71390 | 33217 ft | 420 kts | 96° |
| 2026-04-23 16:29 | 56.02514 | -17.65269 | 33219 ft | 420 kts | 96° |
| 2026-04-23 16:30 | 56.02521 | -17.59686 | 33374 ft | 414 kts | 97° |
| 2026-04-23 16:30 | 56.02527 | -17.55379 | 32845 ft | 423 kts | 96° |
| 2026-04-23 16:31 | 56.02533 | -17.50736 | 31643 ft | 434 kts | 96° |
| 2026-04-23 16:31 | 56.02529 | -17.45439 | 31823 ft | 423 kts | 97° |
| 2026-04-23 16:31 | 56.02523 | -17.40178 | 32165 ft | 422 kts | 97° |
| 2026-04-23 16:31 | 56.02517 | -17.34941 | 32477 ft | 421 kts | 97° |
| 2026-04-23 16:32 | 56.02507 | -17.29707 | 32751 ft | 420 kts | 97° |
| 2026-04-23 16:32 | 56.02499 | -17.24506 | 32914 ft | 421 kts | 97° |
| 2026-04-23 16:32 | 56.02486 | -17.19260 | 33131 ft | 422 kts | 97° |
| 2026-04-23 16:32 | 56.02470 | -17.14012 | 33252 ft | 422 kts | 97° |
| 2026-04-23 16:33 | 56.02435 | -17.03812 | 33244 ft | 421 kts | 97° |
| 2026-04-23 16:33 | 56.02407 | -16.96587 | 33239 ft | 421 kts | 97° |
| 2026-04-23 16:34 | 56.02361 | -16.86524 | 33231 ft | 421 kts | 97° |
| 2026-04-23 16:34 | 56.02301 | -16.76039 | 33238 ft | 421 kts | 97° |
| 2026-04-23 16:35 | 56.02235 | -16.65608 | 33197 ft | 422 kts | 98° |
| 2026-04-23 16:35 | 56.02156 | -16.55000 | 33229 ft | 427 kts | 98° |
| 2026-04-23 16:36 | 56.02070 | -16.44402 | 33251 ft | 427 kts | 98° |
| 2026-04-23 16:36 | 56.01974 | -16.33775 | 33252 ft | 426 kts | 98° |
| 2026-04-23 16:37 | 56.01871 | -16.23216 | 33251 ft | 425 kts | 98° |
| 2026-04-23 16:37 | 56.01765 | -16.13309 | 33260 ft | 425 kts | 98° |
| 2026-04-23 16:38 | 56.01641 | -16.02695 | 33230 ft | 429 kts | 98° |
| 2026-04-23 16:38 | 56.01508 | -15.92026 | 33254 ft | 431 kts | 98° |
| 2026-04-23 16:39 | 56.01367 | -15.81307 | 33264 ft | 431 kts | 98° |
| 2026-04-23 16:39 | 56.01215 | -15.70575 | 33265 ft | 431 kts | 98° |
| 2026-04-23 16:40 | 56.01057 | -15.59915 | 33271 ft | 431 kts | 98° |
| 2026-04-23 16:40 | 56.00888 | -15.49184 | 33271 ft | 431 kts | 98° |
| 2026-04-23 16:41 | 56.00707 | -15.38419 | 33264 ft | 434 kts | 98° |
| 2026-04-23 16:41 | 56.00517 | -15.27602 | 33281 ft | 434 kts | 98° |
| 2026-04-23 16:42 | 56.00321 | -15.16854 | 33283 ft | 434 kts | 98° |
| 2026-04-23 16:42 | 56.00112 | -15.06054 | 33292 ft | 434 kts | 99° |
| 2026-04-23 16:43 | 56.00007 | -14.95270 | 33290 ft | 436 kts | 96° |
| 2026-04-23 16:43 | 56.00044 | -14.84447 | 33274 ft | 440 kts | 96° |
| 2026-04-23 16:44 | 56.00071 | -14.73495 | 33298 ft | 441 kts | 96° |
| 2026-04-23 16:44 | 56.00090 | -14.62527 | 33300 ft | 441 kts | 96° |
| 2026-04-23 16:45 | 56.00093 | -14.53392 | 33303 ft | 441 kts | 96° |
| 2026-04-23 16:45 | 56.00086 | -14.40637 | 33309 ft | 441 kts | 96° |
| 2026-04-23 16:46 | 56.00078 | -14.31544 | 33305 ft | 439 kts | 97° |
| 2026-04-23 16:46 | 56.00053 | -14.20567 | 33292 ft | 443 kts | 96° |
| 2026-04-23 16:47 | 56.00022 | -14.09531 | 33308 ft | 443 kts | 96° |
| 2026-04-23 16:47 | 56.00017 | -13.98524 | 33307 ft | 445 kts | 95° |
| 2026-04-23 16:48 | 56.00186 | -13.87444 | 33320 ft | 445 kts | 95° |
| 2026-04-23 16:48 | 56.00350 | -13.76391 | 33320 ft | 445 kts | 95° |
| 2026-04-23 16:49 | 56.00503 | -13.65294 | 33307 ft | 449 kts | 95° |
| 2026-04-23 16:49 | 56.00647 | -13.54168 | 33321 ft | 449 kts | 95° |
| 2026-04-23 16:50 | 56.00782 | -13.42994 | 33335 ft | 449 kts | 95° |
| 2026-04-23 16:50 | 56.00905 | -13.31870 | 33331 ft | 449 kts | 95° |
| 2026-04-23 16:51 | 56.01021 | -13.20745 | 33337 ft | 449 kts | 95° |
| 2026-04-23 16:51 | 56.01124 | -13.09576 | 33322 ft | 452 kts | 95° |
| 2026-04-23 16:52 | 56.01217 | -12.98313 | 33341 ft | 452 kts | 95° |
| 2026-04-23 16:52 | 56.01303 | -12.87041 | 33341 ft | 453 kts | 95° |
| 2026-04-23 16:53 | 56.01378 | -12.75793 | 33350 ft | 452 kts | 95° |
| 2026-04-23 16:53 | 56.01442 | -12.64607 | 33351 ft | 452 kts | 95° |
| 2026-04-23 16:54 | 56.01496 | -12.53372 | 33332 ft | 454 kts | 95° |
| 2026-04-23 16:54 | 56.01542 | -12.42032 | 33350 ft | 455 kts | 95° |
| 2026-04-23 16:55 | 56.01573 | -12.30763 | 33358 ft | 455 kts | 95° |
| 2026-04-23 16:55 | 56.01595 | -12.19433 | 33357 ft | 455 kts | 95° |
| 2026-04-23 16:56 | 56.01609 | -12.08098 | 33362 ft | 455 kts | 95° |
| 2026-04-23 16:56 | 56.01609 | -11.96792 | 33360 ft | 455 kts | 95° |
| 2026-04-23 16:57 | 56.01599 | -11.85459 | 33365 ft | 455 kts | 95° |
| 2026-04-23 16:57 | 56.01586 | -11.74146 | 33365 ft | 455 kts | 95° |
| 2026-04-23 16:58 | 56.01558 | -11.62853 | 33366 ft | 453 kts | 95° |
| 2026-04-23 16:58 | 56.01518 | -11.51587 | 33373 ft | 453 kts | 96° |
| 2026-04-23 16:59 | 56.01467 | -11.40382 | 33363 ft | 454 kts | 95° |
| 2026-04-23 16:59 | 56.01407 | -11.29064 | 33370 ft | 454 kts | 95° |
| 2026-04-23 17:00 | 56.01339 | -11.17746 | 33367 ft | 454 kts | 96° |
| 2026-04-23 17:00 | 56.01257 | -11.06486 | 33378 ft | 455 kts | 96° |
| 2026-04-23 17:01 | 56.01166 | -10.95228 | 33376 ft | 454 kts | 96° |
| 2026-04-23 17:01 | 56.01065 | -10.84001 | 33376 ft | 454 kts | 96° |
| 2026-04-23 17:02 | 56.00954 | -10.72684 | 33366 ft | 456 kts | 95° |
| 2026-04-23 17:02 | 56.00834 | -10.61319 | 33381 ft | 456 kts | 95° |
| 2026-04-23 17:03 | 56.00700 | -10.49982 | 33379 ft | 456 kts | 95° |
| 2026-04-23 17:03 | 56.00556 | -10.38639 | 33401 ft | 456 kts | 95° |
| 2026-04-23 17:04 | 56.00404 | -10.27340 | 33387 ft | 456 kts | 95° |
| 2026-04-23 17:04 | 56.00239 | -10.15934 | 33391 ft | 458 kts | 95° |
| 2026-04-23 17:05 | 56.00065 | -10.04581 | 33398 ft | 459 kts | 95° |
| 2026-04-23 17:05 | 55.99334 | -9.93332 | 33388 ft | 454 kts | 105° |
| 2026-04-23 17:06 | 55.98029 | -9.82362 | 33387 ft | 454 kts | 105° |
| 2026-04-23 17:06 | 55.96751 | -9.71325 | 33398 ft | 454 kts | 105° |
| 2026-04-23 17:07 | 55.95480 | -9.60242 | 33385 ft | 456 kts | 104° |
| 2026-04-23 17:07 | 55.94202 | -9.49190 | 33402 ft | 457 kts | 104° |
| 2026-04-23 17:08 | 55.92912 | -9.38099 | 33396 ft | 456 kts | 104° |
| 2026-04-23 17:08 | 55.91613 | -9.27026 | 33401 ft | 456 kts | 105° |
| 2026-04-23 17:09 | 55.90299 | -9.15952 | 33404 ft | 455 kts | 105° |
| 2026-04-23 17:09 | 55.88983 | -9.04968 | 33395 ft | 456 kts | 104° |
| 2026-04-23 17:10 | 55.87647 | -8.93868 | 33407 ft | 458 kts | 104° |
| 2026-04-23 17:10 | 55.86300 | -8.82765 | 33409 ft | 458 kts | 104° |
| 2026-04-23 17:11 | 55.84938 | -8.71674 | 33418 ft | 458 kts | 104° |
| 2026-04-23 17:11 | 55.83568 | -8.60580 | 33419 ft | 458 kts | 104° |
| 2026-04-23 17:12 | 55.82198 | -8.49562 | 33418 ft | 458 kts | 104° |
| 2026-04-23 17:12 | 55.80808 | -8.38465 | 33414 ft | 460 kts | 104° |
| 2026-04-23 17:13 | 55.79407 | -8.27359 | 33421 ft | 460 kts | 105° |
| 2026-04-23 17:13 | 55.77992 | -8.16264 | 33423 ft | 460 kts | 105° |
| 2026-04-23 17:14 | 55.76575 | -8.05232 | 33428 ft | 460 kts | 105° |
| 2026-04-23 17:14 | 55.75140 | -7.94143 | 33424 ft | 460 kts | 105° |
| 2026-04-23 17:15 | 55.73694 | -7.83042 | 33419 ft | 462 kts | 105° |
| 2026-04-23 17:15 | 55.72244 | -7.72013 | 33420 ft | 462 kts | 105° |
| 2026-04-23 17:16 | 55.70773 | -7.60889 | 33430 ft | 461 kts | 105° |
| 2026-04-23 17:16 | 55.69293 | -7.49820 | 33430 ft | 462 kts | 105° |
| 2026-04-23 17:17 | 55.67810 | -7.38784 | 33436 ft | 461 kts | 105° |
| 2026-04-23 17:17 | 55.66311 | -7.27696 | 33431 ft | 461 kts | 105° |
| 2026-04-23 17:18 | 55.64049 | -7.11145 | 33443 ft | 463 kts | 105° |
| 2026-04-23 17:19 | 55.62519 | -7.00059 | 33441 ft | 463 kts | 105° |
| 2026-04-23 17:19 | 55.60983 | -6.88993 | 33448 ft | 462 kts | 105° |
| 2026-04-23 17:20 | 55.59445 | -6.77999 | 33439 ft | 463 kts | 105° |
| 2026-04-23 17:21 | 55.56337 | -6.56041 | 33456 ft | 462 kts | 105° |
| 2026-04-23 17:21 | 55.53973 | -6.39515 | 33464 ft | 462 kts | 105° |
| 2026-04-23 17:22 | 55.51657 | -6.23516 | 33455 ft | 461 kts | 105° |
| 2026-04-23 17:23 | 55.49243 | -6.07017 | 33448 ft | 461 kts | 105° |
| 2026-04-23 17:24 | 55.46827 | -5.90649 | 33444 ft | 462 kts | 105° |
| 2026-04-23 17:24 | 55.44372 | -5.74201 | 33436 ft | 462 kts | 105° |
| 2026-04-23 17:25 | 55.42288 | -5.59686 | 33456 ft | 462 kts | 104° |
| 2026-04-23 17:26 | 55.39406 | -5.37831 | 32863 ft | 453 kts | 103° |
| 2026-04-23 17:27 | 55.37946 | -5.26904 | 30738 ft | 460 kts | 104° |
| 2026-04-23 17:27 | 55.37212 | -5.21442 | 29824 ft | 460 kts | 104° |
| 2026-04-23 17:27 | 55.36471 | -5.15943 | 28897 ft | 461 kts | 104° |
| 2026-04-23 17:27 | 55.35750 | -5.10610 | 28030 ft | 461 kts | 104° |
| 2026-04-23 17:28 | 55.35004 | -5.05119 | 27168 ft | 461 kts | 104° |
| 2026-04-23 17:28 | 55.34267 | -4.99716 | 26348 ft | 459 kts | 104° |
| 2026-04-23 17:28 | 55.33519 | -4.94275 | 25570 ft | 456 kts | 104° |
| 2026-04-23 17:28 | 55.32774 | -4.88854 | 24830 ft | 453 kts | 104° |
| 2026-04-23 17:29 | 55.32066 | -4.83455 | 24096 ft | 451 kts | 101° |
| 2026-04-23 17:29 | 55.31770 | -4.78013 | 23257 ft | 449 kts | 90° |
| 2026-04-23 17:29 | 55.32779 | -4.67287 | 21662 ft | 444 kts | 77° |
| 2026-04-23 17:30 | 55.33511 | -4.62073 | 20893 ft | 441 kts | 77° |
| 2026-04-23 17:30 | 55.34938 | -4.51695 | 19443 ft | 434 kts | 77° |
| 2026-04-23 17:30 | 55.35628 | -4.46568 | 18765 ft | 431 kts | 77° |
| 2026-04-23 17:31 | 55.36314 | -4.41438 | 18000 ft | 429 kts | 78° |
| 2026-04-23 17:31 | 55.36991 | -4.36337 | 17276 ft | 427 kts | 78° |
| 2026-04-23 17:31 | 55.37662 | -4.31264 | 16557 ft | 426 kts | 78° |
| 2026-04-23 17:31 | 55.38328 | -4.26203 | 15903 ft | 420 kts | 78° |
| 2026-04-23 17:32 | 55.38972 | -4.21301 | 15256 ft | 413 kts | 78° |
| 2026-04-23 17:32 | 55.39612 | -4.16414 | 14607 ft | 407 kts | 78° |
| 2026-04-23 17:32 | 55.40242 | -4.11577 | 13953 ft | 402 kts | 78° |
| 2026-04-23 17:32 | 55.40861 | -4.06819 | 13289 ft | 396 kts | 78° |
| 2026-04-23 17:33 | 55.41449 | -4.02278 | 12657 ft | 391 kts | 78° |
| 2026-04-23 17:33 | 55.42047 | -3.97648 | 12116 ft | 384 kts | 78° |
| 2026-04-23 17:33 | 55.42626 | -3.93149 | 11803 ft | 371 kts | 78° |
| 2026-04-23 17:33 | 55.43184 | -3.88792 | 11586 ft | 356 kts | 78° |
| 2026-04-23 17:34 | 55.43718 | -3.84617 | 11381 ft | 342 kts | 78° |
| 2026-04-23 17:34 | 55.44226 | -3.80633 | 11203 ft | 328 kts | 78° |
| 2026-04-23 17:34 | 55.45182 | -3.73106 | 10854 ft | 302 kts | 78° |
| 2026-04-23 17:35 | 55.45632 | -3.69561 | 10502 ft | 298 kts | 79° |
| 2026-04-23 17:35 | 55.46529 | -3.62442 | 9531 ft | 296 kts | 78° |
| 2026-04-23 17:35 | 55.46971 | -3.58915 | 9086 ft | 294 kts | 78° |
| 2026-04-23 17:36 | 55.47414 | -3.55392 | 8647 ft | 292 kts | 78° |
| 2026-04-23 17:36 | 55.47848 | -3.51918 | 8239 ft | 290 kts | 78° |
| 2026-04-23 17:36 | 55.48282 | -3.48434 | 7795 ft | 289 kts | 78° |
| 2026-04-23 17:36 | 55.48714 | -3.45012 | 7519 ft | 282 kts | 78° |
| 2026-04-23 17:37 | 55.49132 | -3.41745 | 7536 ft | 263 kts | 78° |
| 2026-04-23 17:37 | 55.49535 | -3.38644 | 7605 ft | 263 kts | 75° |
| 2026-04-23 17:37 | 55.51791 | -3.33888 | 7605 ft | 263 kts | 17° |
| 2026-04-23 17:38 | 55.53585 | -3.33688 | 7573 ft | 259 kts | 343° |
| 2026-04-23 17:38 | 55.55142 | -3.35179 | 7606 ft | 256 kts | 314° |
| 2026-04-23 17:38 | 55.56098 | -3.37769 | 7573 ft | 253 kts | 286° |
| 2026-04-23 17:38 | 55.56362 | -3.40822 | 7596 ft | 251 kts | 271° |
| 2026-04-23 17:39 | 55.56536 | -3.43897 | 7572 ft | 252 kts | 285° |
| 2026-04-23 17:39 | 55.57418 | -3.46553 | 7607 ft | 256 kts | 313° |
| 2026-04-23 17:39 | 55.58749 | -3.48660 | 7568 ft | 256 kts | 318° |
| 2026-04-23 17:39 | 55.60108 | -3.50651 | 7594 ft | 257 kts | 319° |
| 2026-04-23 17:40 | 55.61485 | -3.52674 | 7572 ft | 257 kts | 319° |
| 2026-04-23 17:40 | 55.62855 | -3.54703 | 7606 ft | 257 kts | 318° |
| 2026-04-23 17:40 | 55.64224 | -3.56743 | 7579 ft | 257 kts | 318° |
| 2026-04-23 17:40 | 55.65591 | -3.58760 | 7593 ft | 254 kts | 319° |
| 2026-04-23 17:41 | 55.66953 | -3.60755 | 7165 ft | 251 kts | 319° |
| 2026-04-23 17:41 | 55.69611 | -3.64679 | 6089 ft | 250 kts | 317° |
| 2026-04-23 17:41 | 55.70913 | -3.66727 | 5542 ft | 250 kts | 316° |
| 2026-04-23 17:42 | 55.73499 | -3.70840 | 4597 ft | 248 kts | 316° |
| 2026-04-23 17:42 | 55.74780 | -3.72876 | 4188 ft | 247 kts | 316° |
| 2026-04-23 17:42 | 55.76082 | -3.74895 | 3972 ft | 249 kts | 322° |
| 2026-04-23 17:43 | 55.77584 | -3.76380 | 3946 ft | 249 kts | 341° |
| 2026-04-23 17:43 | 55.79307 | -3.76813 | 3963 ft | 248 kts | 358° |
| 2026-04-23 17:43 | 55.80942 | -3.76542 | 3950 ft | 230 kts | 19° |
| 2026-04-23 17:43 | 55.82274 | -3.74997 | 3962 ft | 229 kts | 50° |
| 2026-04-23 17:44 | 55.83182 | -3.72736 | 3981 ft | 227 kts | 62° |
| 2026-04-23 17:44 | 55.83935 | -3.70271 | 3985 ft | 227 kts | 65° |
| 2026-04-23 17:44 | 55.85431 | -3.65420 | 3651 ft | 212 kts | 61° |
| 2026-04-23 17:45 | 55.86173 | -3.63213 | 3431 ft | 204 kts | 60° |
| 2026-04-23 17:45 | 55.87602 | -3.59011 | 2896 ft | 190 kts | 61° |
| 2026-04-23 17:45 | 55.88264 | -3.57064 | 2620 ft | 178 kts | 60° |
| 2026-04-23 17:46 | 55.89370 | -3.53814 | 2135 ft | 145 kts | 61° |
| 2026-04-23 17:46 | 55.89881 | -3.52311 | 1909 ft | 140 kts | 61° |
| 2026-04-23 17:46 | 55.90357 | -3.50911 | 1736 ft | 139 kts | 61° |
| 2026-04-23 17:47 | 55.90862 | -3.49424 | 1544 ft | 139 kts | 60° |
| 2026-04-23 17:47 | 55.91355 | -3.47974 | 1382 ft | 136 kts | 60° |
| 2026-04-23 17:47 | 55.92336 | -3.45119 | 981 ft | 134 kts | 60° |
| 2026-04-23 17:48 | 55.92808 | -3.43694 | 772 ft | 135 kts | 60° |
| 2026-04-23 17:48 | 55.93275 | -3.42262 | 621 ft | 134 kts | 59° |
| 2026-04-23 17:48 | 55.93726 | -3.40953 | 454 ft | 133 kts | 57° |
| 2026-04-23 17:48 | 55.94198 | -3.39602 | 275 ft | 130 kts | 58° |
| 2026-04-23 17:49 | 55.94689 | -3.38165 | 129 ft | 131 kts | 59° |
| 2026-04-23 17:49 | 55.95115 | -3.36911 | 116 ft | 96 kts | 56° |
| 2026-04-23 17:49 | 55.95384 | -3.36114 | 116 ft | 52 kts | 60° |
| 2026-04-23 17:49 | 55.95497 | -3.35778 | 118 ft | 21 kts | 58° |
| 2026-04-23 17:50 | 55.95567 | -3.35556 | 117 ft | 21 kts | 88° |
| 2026-04-23 17:50 | 55.95468 | -3.35411 | 119 ft | 11 kts | 154° |
| 2026-04-23 17:50 | 55.95405 | -3.35479 | 119 ft | 13 kts | 240° |
| 2026-04-23 17:51 | 55.95359 | -3.35617 | 119 ft | 15 kts | 238° |
| 2026-04-23 17:51 | 55.95301 | -3.35787 | 121 ft | 17 kts | 238° |
| 2026-04-23 17:51 | 55.95170 | -3.36177 | 120 ft | 20 kts | 239° |
| 2026-04-23 17:52 | 55.95104 | -3.36370 | 121 ft | 8 kts | 237° |
| 2026-04-23 17:52 | 55.94993 | -3.36410 | 121 ft | 7 kts | 154° |
| 2026-04-23 17:52 | 55.94980 | -3.36400 | 122 ft | 0 kts | 173° |
| 2026-04-23 17:53 | 55.94955 | -3.36373 | 120 ft | 2 kts | 148° |
| 2026-04-23 17:53 | 55.94947 | -3.36365 | 119 ft | 0 kts | 148° |